sensor_id;sensor_type;location;lat;lon;timestamp;P1;durP1;ratioP1;P2;durP2;ratioP2
14060;SDS011;7105;43.616;1.434;2023-09-08T00:02:06;6.05;;;4.35;;
14060;SDS011;7105;43.616;1.434;2023-09-08T00:04:34;5.18;;;4.50;;
14060;SDS011;7105;43.616;1.434;2023-09-08T00:07:00;5.13;;;4.18;;
14060;SDS011;7105;43.616;1.434;2023-09-08T00:09:26;4.78;;;4.28;;
14060;SDS011;7105;43.616;1.434;2023-09-08T00:11:52;4.72;;;4.32;;
14060;SDS011;7105;43.616;1.434;2023-09-08T00:14:19;5.03;;;4.28;;
14060;SDS011;7105;43.616;1.434;2023-09-08T00:16:45;4.57;;;4.18;;
14060;SDS011;7105;43.616;1.434;2023-09-08T00:19:11;4.63;;;4.22;;
14060;SDS011;7105;43.616;1.434;2023-09-08T00:21:36;6.00;;;4.60;;
14060;SDS011;7105;43.616;1.434;2023-09-08T00:24:02;4.13;;;3.58;;
14060;SDS011;7105;43.616;1.434;2023-09-08T00:26:32;4.40;;;4.00;;
14060;SDS011;7105;43.616;1.434;2023-09-08T00:28:57;4.35;;;3.95;;
14060;SDS011;7105;43.616;1.434;2023-09-08T00:31:23;4.65;;;4.10;;
14060;SDS011;7105;43.616;1.434;2023-09-08T00:33:49;5.68;;;4.70;;
14060;SDS011;7105;43.616;1.434;2023-09-08T00:36:14;4.88;;;4.28;;
14060;SDS011;7105;43.616;1.434;2023-09-08T00:38:40;4.65;;;4.18;;
14060;SDS011;7105;43.616;1.434;2023-09-08T00:41:06;4.82;;;4.35;;
14060;SDS011;7105;43.616;1.434;2023-09-08T00:43:32;5.00;;;4.43;;
14060;SDS011;7105;43.616;1.434;2023-09-08T00:45:58;7.68;;;5.05;;
14060;SDS011;7105;43.616;1.434;2023-09-08T00:48:26;4.97;;;4.47;;
14060;SDS011;7105;43.616;1.434;2023-09-08T00:50:52;6.75;;;4.70;;
14060;SDS011;7105;43.616;1.434;2023-09-08T00:53:17;5.13;;;4.30;;
14060;SDS011;7105;43.616;1.434;2023-09-08T00:55:43;4.60;;;3.75;;
14060;SDS011;7105;43.616;1.434;2023-09-08T00:58:11;4.63;;;4.22;;
14060;SDS011;7105;43.616;1.434;2023-09-08T01:00:37;5.18;;;4.38;;
14060;SDS011;7105;43.616;1.434;2023-09-08T01:03:03;5.35;;;4.40;;
14060;SDS011;7105;43.616;1.434;2023-09-08T01:05:30;5.70;;;4.65;;
14060;SDS011;7105;43.616;1.434;2023-09-08T01:07:56;6.47;;;4.57;;
14060;SDS011;7105;43.616;1.434;2023-09-08T01:10:24;5.22;;;4.78;;
14060;SDS011;7105;43.616;1.434;2023-09-08T01:12:49;5.40;;;4.10;;
14060;SDS011;7105;43.616;1.434;2023-09-08T01:15:15;5.75;;;3.90;;
14060;SDS011;7105;43.616;1.434;2023-09-08T01:17:41;5.10;;;4.30;;
14060;SDS011;7105;43.616;1.434;2023-09-08T01:20:15;5.03;;;4.18;;
14060;SDS011;7105;43.616;1.434;2023-09-08T01:25:18;5.30;;;4.80;;
14060;SDS011;7105;43.616;1.434;2023-09-08T01:27:47;6.25;;;4.63;;
14060;SDS011;7105;43.616;1.434;2023-09-08T01:30:26;5.05;;;4.30;;
14060;SDS011;7105;43.616;1.434;2023-09-08T01:32:54;5.45;;;4.63;;
14060;SDS011;7105;43.616;1.434;2023-09-08T01:35:21;5.65;;;4.60;;
14060;SDS011;7105;43.616;1.434;2023-09-08T01:37:47;6.22;;;4.82;;
14060;SDS011;7105;43.616;1.434;2023-09-08T01:40:14;5.15;;;4.45;;
14060;SDS011;7105;43.616;1.434;2023-09-08T01:42:40;6.63;;;4.13;;
14060;SDS011;7105;43.616;1.434;2023-09-08T01:45:07;5.70;;;4.38;;
14060;SDS011;7105;43.616;1.434;2023-09-08T01:47:33;4.57;;;4.18;;
14060;SDS011;7105;43.616;1.434;2023-09-08T01:49:59;4.70;;;4.30;;
14060;SDS011;7105;43.616;1.434;2023-09-08T01:52:25;5.68;;;4.30;;
14060;SDS011;7105;43.616;1.434;2023-09-08T01:54:51;4.88;;;4.35;;
14060;SDS011;7105;43.616;1.434;2023-09-08T01:57:17;4.90;;;3.97;;
14060;SDS011;7105;43.616;1.434;2023-09-08T01:59:43;5.55;;;4.30;;
14060;SDS011;7105;43.616;1.434;2023-09-08T02:02:13;4.72;;;4.25;;
14060;SDS011;7105;43.616;1.434;2023-09-08T02:04:39;5.13;;;4.63;;
14060;SDS011;7105;43.616;1.434;2023-09-08T02:07:04;5.75;;;4.40;;
14060;SDS011;7105;43.616;1.434;2023-09-08T02:09:36;8.90;;;4.45;;
14060;SDS011;7105;43.616;1.434;2023-09-08T02:12:03;5.40;;;4.85;;
14060;SDS011;7105;43.616;1.434;2023-09-08T02:14:29;7.03;;;4.78;;
14060;SDS011;7105;43.616;1.434;2023-09-08T02:16:55;5.93;;;4.70;;
14060;SDS011;7105;43.616;1.434;2023-09-08T02:19:22;6.88;;;4.60;;
14060;SDS011;7105;43.616;1.434;2023-09-08T02:21:48;6.53;;;4.47;;
14060;SDS011;7105;43.616;1.434;2023-09-08T02:24:14;6.60;;;4.70;;
14060;SDS011;7105;43.616;1.434;2023-09-08T02:26:40;5.65;;;5.07;;
14060;SDS011;7105;43.616;1.434;2023-09-08T02:29:05;6.00;;;5.40;;
14060;SDS011;7105;43.616;1.434;2023-09-08T02:31:32;6.03;;;5.50;;
14060;SDS011;7105;43.616;1.434;2023-09-08T02:33:58;10.63;;;5.70;;
14060;SDS011;7105;43.616;1.434;2023-09-08T02:36:24;7.88;;;6.93;;
14060;SDS011;7105;43.616;1.434;2023-09-08T02:38:53;9.65;;;8.68;;
14060;SDS011;7105;43.616;1.434;2023-09-08T02:41:20;10.60;;;9.65;;
14060;SDS011;7105;43.616;1.434;2023-09-08T02:43:46;10.82;;;9.80;;
14060;SDS011;7105;43.616;1.434;2023-09-08T02:46:12;9.75;;;8.80;;
14060;SDS011;7105;43.616;1.434;2023-09-08T02:48:38;10.90;;;8.98;;
14060;SDS011;7105;43.616;1.434;2023-09-08T02:51:04;9.35;;;8.20;;
14060;SDS011;7105;43.616;1.434;2023-09-08T02:53:30;8.70;;;7.95;;
14060;SDS011;7105;43.616;1.434;2023-09-08T02:55:56;8.20;;;7.50;;
14060;SDS011;7105;43.616;1.434;2023-09-08T02:58:23;8.63;;;6.93;;
14060;SDS011;7105;43.616;1.434;2023-09-08T03:00:48;6.82;;;6.22;;
14060;SDS011;7105;43.616;1.434;2023-09-08T03:03:16;7.70;;;6.95;;
14060;SDS011;7105;43.616;1.434;2023-09-08T03:05:42;6.40;;;5.85;;
14060;SDS011;7105;43.616;1.434;2023-09-08T03:08:08;8.57;;;5.50;;
14060;SDS011;7105;43.616;1.434;2023-09-08T03:10:33;7.28;;;6.10;;
14060;SDS011;7105;43.616;1.434;2023-09-08T03:13:08;6.35;;;5.65;;
14060;SDS011;7105;43.616;1.434;2023-09-08T03:15:36;6.82;;;5.28;;
14060;SDS011;7105;43.616;1.434;2023-09-08T03:18:01;6.00;;;5.20;;
14060;SDS011;7105;43.616;1.434;2023-09-08T03:20:27;6.00;;;5.50;;
14060;SDS011;7105;43.616;1.434;2023-09-08T03:22:53;5.63;;;5.13;;
14060;SDS011;7105;43.616;1.434;2023-09-08T03:25:19;5.22;;;4.82;;
14060;SDS011;7105;43.616;1.434;2023-09-08T03:27:45;5.72;;;4.72;;
14060;SDS011;7105;43.616;1.434;2023-09-08T03:30:11;5.93;;;4.70;;
14060;SDS011;7105;43.616;1.434;2023-09-08T03:32:37;5.20;;;4.55;;
14060;SDS011;7105;43.616;1.434;2023-09-08T03:35:03;6.85;;;4.80;;
14060;SDS011;7105;43.616;1.434;2023-09-08T03:37:32;12.07;;;6.05;;
14060;SDS011;7105;43.616;1.434;2023-09-08T03:39:59;5.85;;;4.18;;
14060;SDS011;7105;43.616;1.434;2023-09-08T03:42:25;5.13;;;4.63;;
14060;SDS011;7105;43.616;1.434;2023-09-08T03:44:53;5.57;;;4.35;;
14060;SDS011;7105;43.616;1.434;2023-09-08T03:47:19;4.72;;;4.32;;
14060;SDS011;7105;43.616;1.434;2023-09-08T03:49:44;4.85;;;4.45;;
14060;SDS011;7105;43.616;1.434;2023-09-08T03:52:10;5.10;;;4.60;;
14060;SDS011;7105;43.616;1.434;2023-09-08T03:54:37;4.47;;;4.07;;
14060;SDS011;7105;43.616;1.434;2023-09-08T03:57:03;4.47;;;4.07;;
14060;SDS011;7105;43.616;1.434;2023-09-08T03:59:29;5.60;;;4.80;;
14060;SDS011;7105;43.616;1.434;2023-09-08T04:01:54;6.93;;;4.82;;
14060;SDS011;7105;43.616;1.434;2023-09-08T04:04:20;5.30;;;4.80;;
14060;SDS011;7105;43.616;1.434;2023-09-08T04:06:46;5.75;;;4.70;;
14060;SDS011;7105;43.616;1.434;2023-09-08T04:09:11;6.68;;;4.20;;
14060;SDS011;7105;43.616;1.434;2023-09-08T04:11:37;5.07;;;4.50;;
14060;SDS011;7105;43.616;1.434;2023-09-08T04:14:03;5.47;;;4.65;;
14060;SDS011;7105;43.616;1.434;2023-09-08T04:16:29;7.97;;;4.97;;
14060;SDS011;7105;43.616;1.434;2023-09-08T04:18:54;9.13;;;5.13;;
14060;SDS011;7105;43.616;1.434;2023-09-08T04:21:20;5.10;;;4.50;;
14060;SDS011;7105;43.616;1.434;2023-09-08T04:23:46;6.55;;;4.43;;
14060;SDS011;7105;43.616;1.434;2023-09-08T04:26:11;5.15;;;4.63;;
14060;SDS011;7105;43.616;1.434;2023-09-08T04:28:37;6.32;;;4.45;;
14060;SDS011;7105;43.616;1.434;2023-09-08T04:31:03;5.95;;;4.60;;
14060;SDS011;7105;43.616;1.434;2023-09-08T04:33:29;5.13;;;4.55;;
14060;SDS011;7105;43.616;1.434;2023-09-08T04:35:55;5.35;;;4.50;;
14060;SDS011;7105;43.616;1.434;2023-09-08T04:38:21;7.05;;;4.63;;
14060;SDS011;7105;43.616;1.434;2023-09-08T04:40:47;5.50;;;4.43;;
14060;SDS011;7105;43.616;1.434;2023-09-08T04:43:13;5.53;;;4.80;;
14060;SDS011;7105;43.616;1.434;2023-09-08T04:45:38;4.60;;;4.07;;
14060;SDS011;7105;43.616;1.434;2023-09-08T04:48:04;5.38;;;4.82;;
14060;SDS011;7105;43.616;1.434;2023-09-08T04:50:30;6.03;;;4.45;;
14060;SDS011;7105;43.616;1.434;2023-09-08T04:52:56;5.78;;;4.43;;
14060;SDS011;7105;43.616;1.434;2023-09-08T04:55:22;5.22;;;4.55;;
14060;SDS011;7105;43.616;1.434;2023-09-08T04:57:47;5.00;;;4.50;;
14060;SDS011;7105;43.616;1.434;2023-09-08T05:00:13;5.43;;;4.55;;
14060;SDS011;7105;43.616;1.434;2023-09-08T05:02:40;6.20;;;4.20;;
14060;SDS011;7105;43.616;1.434;2023-09-08T05:05:06;5.47;;;4.50;;
14060;SDS011;7105;43.616;1.434;2023-09-08T05:07:32;7.22;;;4.43;;
14060;SDS011;7105;43.616;1.434;2023-09-08T05:10:01;5.85;;;4.55;;
14060;SDS011;7105;43.616;1.434;2023-09-08T05:12:27;8.05;;;5.47;;
14060;SDS011;7105;43.616;1.434;2023-09-08T05:14:53;5.40;;;4.70;;
14060;SDS011;7105;43.616;1.434;2023-09-08T05:17:22;6.78;;;5.47;;
14060;SDS011;7105;43.616;1.434;2023-09-08T05:19:48;6.57;;;4.88;;
14060;SDS011;7105;43.616;1.434;2023-09-08T05:22:14;7.95;;;5.18;;
14060;SDS011;7105;43.616;1.434;2023-09-08T05:24:40;9.35;;;5.03;;
14060;SDS011;7105;43.616;1.434;2023-09-08T05:27:05;7.60;;;5.28;;
14060;SDS011;7105;43.616;1.434;2023-09-08T05:29:31;6.18;;;5.28;;
14060;SDS011;7105;43.616;1.434;2023-09-08T05:31:57;5.35;;;4.78;;
14060;SDS011;7105;43.616;1.434;2023-09-08T05:34:22;5.53;;;4.57;;
14060;SDS011;7105;43.616;1.434;2023-09-08T05:36:48;5.40;;;4.50;;
14060;SDS011;7105;43.616;1.434;2023-09-08T05:39:17;7.25;;;5.00;;
14060;SDS011;7105;43.616;1.434;2023-09-08T05:41:44;6.43;;;5.10;;
14060;SDS011;7105;43.616;1.434;2023-09-08T05:44:10;9.68;;;5.10;;
14060;SDS011;7105;43.616;1.434;2023-09-08T05:46:36;7.90;;;4.63;;
14060;SDS011;7105;43.616;1.434;2023-09-08T05:49:01;5.43;;;4.90;;
14060;SDS011;7105;43.616;1.434;2023-09-08T05:51:27;9.50;;;5.75;;
14060;SDS011;7105;43.616;1.434;2023-09-08T05:53:53;10.15;;;6.80;;
14060;SDS011;7105;43.616;1.434;2023-09-08T05:56:19;6.97;;;4.93;;
14060;SDS011;7105;43.616;1.434;2023-09-08T05:58:45;10.75;;;4.82;;
14060;SDS011;7105;43.616;1.434;2023-09-08T06:01:11;8.23;;;4.78;;
14060;SDS011;7105;43.616;1.434;2023-09-08T06:03:36;6.97;;;4.60;;
14060;SDS011;7105;43.616;1.434;2023-09-08T06:06:02;7.68;;;4.88;;
14060;SDS011;7105;43.616;1.434;2023-09-08T06:08:28;6.47;;;4.70;;
14060;SDS011;7105;43.616;1.434;2023-09-08T06:10:53;5.85;;;4.15;;
14060;SDS011;7105;43.616;1.434;2023-09-08T06:13:19;7.68;;;4.82;;
14060;SDS011;7105;43.616;1.434;2023-09-08T06:15:45;5.18;;;4.50;;
14060;SDS011;7105;43.616;1.434;2023-09-08T06:18:11;7.97;;;5.30;;
14060;SDS011;7105;43.616;1.434;2023-09-08T06:20:37;5.32;;;4.50;;
14060;SDS011;7105;43.616;1.434;2023-09-08T06:23:08;5.78;;;4.40;;
14060;SDS011;7105;43.616;1.434;2023-09-08T06:25:35;5.72;;;4.30;;
14060;SDS011;7105;43.616;1.434;2023-09-08T06:28:00;5.32;;;4.40;;
14060;SDS011;7105;43.616;1.434;2023-09-08T06:30:26;6.10;;;4.30;;
14060;SDS011;7105;43.616;1.434;2023-09-08T06:32:52;5.50;;;4.43;;
14060;SDS011;7105;43.616;1.434;2023-09-08T06:35:17;6.80;;;4.03;;
14060;SDS011;7105;43.616;1.434;2023-09-08T06:37:43;8.73;;;4.20;;
14060;SDS011;7105;43.616;1.434;2023-09-08T06:40:09;5.97;;;4.40;;
14060;SDS011;7105;43.616;1.434;2023-09-08T06:42:35;7.70;;;4.25;;
14060;SDS011;7105;43.616;1.434;2023-09-08T06:45:00;5.03;;;4.15;;
14060;SDS011;7105;43.616;1.434;2023-09-08T06:47:26;4.75;;;3.72;;
14060;SDS011;7105;43.616;1.434;2023-09-08T06:49:52;5.57;;;3.80;;
14060;SDS011;7105;43.616;1.434;2023-09-08T06:52:18;4.72;;;3.50;;
14060;SDS011;7105;43.616;1.434;2023-09-08T06:54:44;5.53;;;3.45;;
14060;SDS011;7105;43.616;1.434;2023-09-08T06:57:11;7.80;;;3.47;;
14060;SDS011;7105;43.616;1.434;2023-09-08T06:59:37;4.22;;;3.78;;
14060;SDS011;7105;43.616;1.434;2023-09-08T07:02:03;5.53;;;3.80;;
14060;SDS011;7105;43.616;1.434;2023-09-08T07:04:29;6.47;;;3.40;;
14060;SDS011;7105;43.616;1.434;2023-09-08T07:06:55;4.18;;;3.50;;
14060;SDS011;7105;43.616;1.434;2023-09-08T07:09:21;7.35;;;3.50;;
14060;SDS011;7105;43.616;1.434;2023-09-08T07:11:47;5.05;;;3.97;;
14060;SDS011;7105;43.616;1.434;2023-09-08T07:14:12;11.60;;;3.50;;
14060;SDS011;7105;43.616;1.434;2023-09-08T07:16:38;4.97;;;3.80;;
14060;SDS011;7105;43.616;1.434;2023-09-08T07:19:04;5.30;;;3.38;;
14060;SDS011;7105;43.616;1.434;2023-09-08T07:21:30;4.30;;;3.15;;
14060;SDS011;7105;43.616;1.434;2023-09-08T07:23:56;4.70;;;3.00;;
14060;SDS011;7105;43.616;1.434;2023-09-08T07:26:21;5.28;;;3.25;;
14060;SDS011;7105;43.616;1.434;2023-09-08T07:28:47;4.18;;;3.17;;
14060;SDS011;7105;43.616;1.434;2023-09-08T07:31:14;6.20;;;3.20;;
14060;SDS011;7105;43.616;1.434;2023-09-08T07:33:39;3.13;;;2.70;;
14060;SDS011;7105;43.616;1.434;2023-09-08T07:36:05;4.57;;;2.80;;
14060;SDS011;7105;43.616;1.434;2023-09-08T07:38:32;4.32;;;2.90;;
14060;SDS011;7105;43.616;1.434;2023-09-08T07:40:58;4.57;;;2.97;;
14060;SDS011;7105;43.616;1.434;2023-09-08T07:43:26;5.80;;;2.80;;
14060;SDS011;7105;43.616;1.434;2023-09-08T07:45:52;3.80;;;3.13;;
14060;SDS011;7105;43.616;1.434;2023-09-08T07:48:18;5.25;;;2.90;;
14060;SDS011;7105;43.616;1.434;2023-09-08T07:50:44;7.10;;;2.80;;
14060;SDS011;7105;43.616;1.434;2023-09-08T07:53:09;5.32;;;2.72;;
14060;SDS011;7105;43.616;1.434;2023-09-08T07:55:35;5.95;;;2.90;;
14060;SDS011;7105;43.616;1.434;2023-09-08T07:58:01;5.15;;;2.80;;
14060;SDS011;7105;43.616;1.434;2023-09-08T08:00:31;2.60;;;2.40;;
14060;SDS011;7105;43.616;1.434;2023-09-08T08:02:57;5.75;;;2.80;;
14060;SDS011;7105;43.616;1.434;2023-09-08T08:05:23;3.22;;;2.70;;
14060;SDS011;7105;43.616;1.434;2023-09-08T08:07:49;3.47;;;2.58;;
14060;SDS011;7105;43.616;1.434;2023-09-08T08:10:16;4.43;;;2.90;;
14060;SDS011;7105;43.616;1.434;2023-09-08T08:12:42;4.28;;;3.10;;
14060;SDS011;7105;43.616;1.434;2023-09-08T08:15:09;2.92;;;2.63;;
14060;SDS011;7105;43.616;1.434;2023-09-08T08:17:35;5.07;;;3.00;;
14060;SDS011;7105;43.616;1.434;2023-09-08T08:20:02;5.43;;;2.90;;
14060;SDS011;7105;43.616;1.434;2023-09-08T08:22:34;6.07;;;2.70;;
14060;SDS011;7105;43.616;1.434;2023-09-08T08:25:01;4.85;;;3.03;;
14060;SDS011;7105;43.616;1.434;2023-09-08T08:27:26;3.17;;;2.92;;
14060;SDS011;7105;43.616;1.434;2023-09-08T08:29:52;5.93;;;2.80;;
14060;SDS011;7105;43.616;1.434;2023-09-08T08:32:18;4.25;;;2.92;;
14060;SDS011;7105;43.616;1.434;2023-09-08T08:34:43;2.85;;;2.53;;
14060;SDS011;7105;43.616;1.434;2023-09-08T08:37:10;2.88;;;2.67;;
14060;SDS011;7105;43.616;1.434;2023-09-08T08:39:36;4.63;;;2.72;;
14060;SDS011;7105;43.616;1.434;2023-09-08T08:42:08;3.50;;;2.90;;
14060;SDS011;7105;43.616;1.434;2023-09-08T08:44:35;3.65;;;3.03;;
14060;SDS011;7105;43.616;1.434;2023-09-08T08:47:03;6.20;;;3.05;;
14060;SDS011;7105;43.616;1.434;2023-09-08T08:49:31;3.17;;;2.88;;
14060;SDS011;7105;43.616;1.434;2023-09-08T08:51:57;3.83;;;2.72;;
14060;SDS011;7105;43.616;1.434;2023-09-08T08:54:24;3.20;;;2.78;;
14060;SDS011;7105;43.616;1.434;2023-09-08T08:56:50;3.38;;;2.80;;
14060;SDS011;7105;43.616;1.434;2023-09-08T08:59:16;7.72;;;2.80;;
14060;SDS011;7105;43.616;1.434;2023-09-08T09:01:43;3.20;;;2.97;;
14060;SDS011;7105;43.616;1.434;2023-09-08T09:04:08;3.28;;;2.97;;
14060;SDS011;7105;43.616;1.434;2023-09-08T09:06:35;4.20;;;2.83;;
14060;SDS011;7105;43.616;1.434;2023-09-08T09:09:01;3.58;;;3.15;;
14060;SDS011;7105;43.616;1.434;2023-09-08T09:11:30;5.07;;;2.92;;
14060;SDS011;7105;43.616;1.434;2023-09-08T09:13:57;3.95;;;3.08;;
14060;SDS011;7105;43.616;1.434;2023-09-08T09:16:23;3.65;;;3.35;;
14060;SDS011;7105;43.616;1.434;2023-09-08T09:21:21;3.47;;;3.03;;
14060;SDS011;7105;43.616;1.434;2023-09-08T09:23:47;4.70;;;3.40;;
14060;SDS011;7105;43.616;1.434;2023-09-08T09:26:22;4.18;;;3.03;;
14060;SDS011;7105;43.616;1.434;2023-09-08T09:28:49;3.50;;;3.05;;
14060;SDS011;7105;43.616;1.434;2023-09-08T09:31:17;3.42;;;3.13;;
14060;SDS011;7105;43.616;1.434;2023-09-08T09:33:43;2.85;;;2.65;;
14060;SDS011;7105;43.616;1.434;2023-09-08T09:36:09;4.38;;;3.13;;
14060;SDS011;7105;43.616;1.434;2023-09-08T09:38:44;3.28;;;2.90;;
14060;SDS011;7105;43.616;1.434;2023-09-08T09:41:10;4.38;;;4.00;;
14060;SDS011;7105;43.616;1.434;2023-09-08T09:43:36;3.83;;;3.17;;
14060;SDS011;7105;43.616;1.434;2023-09-08T09:46:02;3.33;;;3.03;;
14060;SDS011;7105;43.616;1.434;2023-09-08T09:48:27;4.50;;;3.03;;
14060;SDS011;7105;43.616;1.434;2023-09-08T09:50:53;4.35;;;3.40;;
14060;SDS011;7105;43.616;1.434;2023-09-08T09:53:19;3.75;;;3.40;;
14060;SDS011;7105;43.616;1.434;2023-09-08T09:55:45;3.95;;;3.33;;
14060;SDS011;7105;43.616;1.434;2023-09-08T09:58:11;6.45;;;3.80;;
14060;SDS011;7105;43.616;1.434;2023-09-08T10:00:38;5.05;;;3.55;;
14060;SDS011;7105;43.616;1.434;2023-09-08T10:03:10;4.57;;;3.63;;
14060;SDS011;7105;43.616;1.434;2023-09-08T10:05:36;4.65;;;3.40;;
14060;SDS011;7105;43.616;1.434;2023-09-08T10:08:02;5.82;;;3.72;;
14060;SDS011;7105;43.616;1.434;2023-09-08T10:10:28;3.60;;;3.30;;
14060;SDS011;7105;43.616;1.434;2023-09-08T10:12:57;6.18;;;3.65;;
14060;SDS011;7105;43.616;1.434;2023-09-08T10:15:27;3.95;;;3.50;;
14060;SDS011;7105;43.616;1.434;2023-09-08T10:17:56;5.13;;;3.80;;
14060;SDS011;7105;43.616;1.434;2023-09-08T10:20:25;4.15;;;3.75;;
14060;SDS011;7105;43.616;1.434;2023-09-08T10:23:03;5.60;;;3.50;;
14060;SDS011;7105;43.616;1.434;2023-09-08T10:25:39;4.85;;;3.85;;
14060;SDS011;7105;43.616;1.434;2023-09-08T10:28:08;4.00;;;3.60;;
14060;SDS011;7105;43.616;1.434;2023-09-08T10:30:35;5.35;;;3.65;;
14060;SDS011;7105;43.616;1.434;2023-09-08T10:33:01;3.58;;;3.28;;
14060;SDS011;7105;43.616;1.434;2023-09-08T10:35:28;4.03;;;3.63;;
14060;SDS011;7105;43.616;1.434;2023-09-08T10:43:45;5.47;;;3.40;;
14060;SDS011;7105;43.616;1.434;2023-09-08T10:46:20;3.63;;;3.15;;
14060;SDS011;7105;43.616;1.434;2023-09-08T10:48:47;4.75;;;3.50;;
14060;SDS011;7105;43.616;1.434;2023-09-08T10:51:14;4.30;;;3.25;;
14060;SDS011;7105;43.616;1.434;2023-09-08T10:53:41;4.25;;;3.30;;
14060;SDS011;7105;43.616;1.434;2023-09-08T10:56:07;3.85;;;3.55;;
14060;SDS011;7105;43.616;1.434;2023-09-08T10:58:33;6.18;;;3.65;;
14060;SDS011;7105;43.616;1.434;2023-09-08T11:01:03;5.35;;;3.30;;
14060;SDS011;7105;43.616;1.434;2023-09-08T11:03:48;6.78;;;3.63;;
14060;SDS011;7105;43.616;1.434;2023-09-08T11:06:15;4.53;;;3.00;;
14060;SDS011;7105;43.616;1.434;2023-09-08T11:08:43;3.90;;;3.42;;
14060;SDS011;7105;43.616;1.434;2023-09-08T11:11:10;3.95;;;3.58;;
14060;SDS011;7105;43.616;1.434;2023-09-08T11:13:37;4.13;;;3.42;;
14060;SDS011;7105;43.616;1.434;2023-09-08T11:16:07;3.78;;;3.03;;
14060;SDS011;7105;43.616;1.434;2023-09-08T11:18:33;5.80;;;3.67;;
14060;SDS011;7105;43.616;1.434;2023-09-08T11:21:00;4.55;;;3.47;;
14060;SDS011;7105;43.616;1.434;2023-09-08T11:23:27;3.92;;;3.13;;
14060;SDS011;7105;43.616;1.434;2023-09-08T11:25:53;3.65;;;3.35;;
14060;SDS011;7105;43.616;1.434;2023-09-08T11:28:22;4.43;;;3.60;;
14060;SDS011;7105;43.616;1.434;2023-09-08T11:30:48;4.20;;;3.80;;
14060;SDS011;7105;43.616;1.434;2023-09-08T11:33:15;6.07;;;3.80;;
14060;SDS011;7105;43.616;1.434;2023-09-08T11:35:41;5.32;;;3.83;;
14060;SDS011;7105;43.616;1.434;2023-09-08T11:38:10;5.57;;;3.47;;
14060;SDS011;7105;43.616;1.434;2023-09-08T11:40:36;4.97;;;3.40;;
14060;SDS011;7105;43.616;1.434;2023-09-08T11:43:02;5.90;;;3.75;;
14060;SDS011;7105;43.616;1.434;2023-09-08T11:45:30;4.68;;;3.35;;
14060;SDS011;7105;43.616;1.434;2023-09-08T11:47:56;3.85;;;3.40;;
14060;SDS011;7105;43.616;1.434;2023-09-08T11:50:22;4.10;;;3.45;;
14060;SDS011;7105;43.616;1.434;2023-09-08T11:52:49;8.25;;;3.80;;
14060;SDS011;7105;43.616;1.434;2023-09-08T11:55:16;3.92;;;3.60;;
14060;SDS011;7105;43.616;1.434;2023-09-08T11:57:44;4.53;;;3.85;;
14060;SDS011;7105;43.616;1.434;2023-09-08T12:00:12;6.13;;;3.50;;
14060;SDS011;7105;43.616;1.434;2023-09-08T12:02:42;5.55;;;3.53;;
14060;SDS011;7105;43.616;1.434;2023-09-08T12:05:27;5.40;;;3.80;;
14060;SDS011;7105;43.616;1.434;2023-09-08T12:07:53;3.85;;;3.47;;
14060;SDS011;7105;43.616;1.434;2023-09-08T12:10:21;3.95;;;3.47;;
14060;SDS011;7105;43.616;1.434;2023-09-08T12:12:51;3.97;;;3.22;;
14060;SDS011;7105;43.616;1.434;2023-09-08T12:18:06;3.92;;;3.40;;
14060;SDS011;7105;43.616;1.434;2023-09-08T12:20:40;4.85;;;3.40;;
14060;SDS011;7105;43.616;1.434;2023-09-08T12:23:14;5.07;;;3.60;;
14060;SDS011;7105;43.616;1.434;2023-09-08T12:25:45;6.32;;;4.00;;
14060;SDS011;7105;43.616;1.434;2023-09-08T12:28:16;5.28;;;3.65;;
14060;SDS011;7105;43.616;1.434;2023-09-08T12:30:44;3.83;;;3.35;;
14060;SDS011;7105;43.616;1.434;2023-09-08T12:33:10;3.70;;;3.40;;
14060;SDS011;7105;43.616;1.434;2023-09-08T12:35:36;5.35;;;3.30;;
14060;SDS011;7105;43.616;1.434;2023-09-08T12:38:03;3.90;;;3.10;;
14060;SDS011;7105;43.616;1.434;2023-09-08T12:40:32;4.63;;;3.38;;
14060;SDS011;7105;43.616;1.434;2023-09-08T12:43:02;4.97;;;3.25;;
14060;SDS011;7105;43.616;1.434;2023-09-08T12:45:29;7.90;;;3.40;;
14060;SDS011;7105;43.616;1.434;2023-09-08T12:47:57;4.40;;;3.22;;
14060;SDS011;7105;43.616;1.434;2023-09-08T12:50:26;5.18;;;3.53;;
14060;SDS011;7105;43.616;1.434;2023-09-08T12:52:52;3.92;;;3.20;;
14060;SDS011;7105;43.616;1.434;2023-09-08T12:55:18;3.60;;;3.25;;
14060;SDS011;7105;43.616;1.434;2023-09-08T12:57:44;4.30;;;3.30;;
14060;SDS011;7105;43.616;1.434;2023-09-08T13:00:11;4.63;;;3.28;;
14060;SDS011;7105;43.616;1.434;2023-09-08T13:02:37;4.05;;;3.40;;
14060;SDS011;7105;43.616;1.434;2023-09-08T13:05:03;4.25;;;3.25;;
14060;SDS011;7105;43.616;1.434;2023-09-08T13:07:29;5.68;;;3.13;;
14060;SDS011;7105;43.616;1.434;2023-09-08T13:09:55;3.88;;;3.28;;
14060;SDS011;7105;43.616;1.434;2023-09-08T13:12:21;3.53;;;3.22;;
14060;SDS011;7105;43.616;1.434;2023-09-08T13:14:47;3.67;;;3.08;;
14060;SDS011;7105;43.616;1.434;2023-09-08T13:17:13;6.57;;;3.40;;
14060;SDS011;7105;43.616;1.434;2023-09-08T13:19:42;3.85;;;3.28;;
14060;SDS011;7105;43.616;1.434;2023-09-08T13:22:08;3.88;;;3.08;;
14060;SDS011;7105;43.616;1.434;2023-09-08T13:24:34;4.80;;;3.25;;
14060;SDS011;7105;43.616;1.434;2023-09-08T13:27:00;3.88;;;3.13;;
14060;SDS011;7105;43.616;1.434;2023-09-08T13:29:26;3.70;;;3.40;;
14060;SDS011;7105;43.616;1.434;2023-09-08T13:31:54;8.60;;;3.42;;
14060;SDS011;7105;43.616;1.434;2023-09-08T13:34:21;4.65;;;3.28;;
14060;SDS011;7105;43.616;1.434;2023-09-08T13:36:47;4.70;;;3.10;;
14060;SDS011;7105;43.616;1.434;2023-09-08T13:39:13;7.45;;;3.33;;
14060;SDS011;7105;43.616;1.434;2023-09-08T13:41:59;6.65;;;3.30;;
14060;SDS011;7105;43.616;1.434;2023-09-08T13:44:25;6.07;;;3.58;;
14060;SDS011;7105;43.616;1.434;2023-09-08T13:46:51;3.75;;;3.15;;
14060;SDS011;7105;43.616;1.434;2023-09-08T13:49:18;6.82;;;3.10;;
14060;SDS011;7105;43.616;1.434;2023-09-08T13:51:44;8.35;;;3.80;;
14060;SDS011;7105;43.616;1.434;2023-09-08T13:54:11;6.57;;;3.03;;
14060;SDS011;7105;43.616;1.434;2023-09-08T13:56:40;4.45;;;3.60;;
14060;SDS011;7105;43.616;1.434;2023-09-08T13:59:07;6.13;;;3.55;;
14060;SDS011;7105;43.616;1.434;2023-09-08T14:01:34;4.97;;;3.00;;
14060;SDS011;7105;43.616;1.434;2023-09-08T14:04:00;6.47;;;3.40;;
14060;SDS011;7105;43.616;1.434;2023-09-08T14:06:27;5.22;;;3.20;;
14060;SDS011;7105;43.616;1.434;2023-09-08T14:08:53;3.38;;;3.08;;
14060;SDS011;7105;43.616;1.434;2023-09-08T14:11:19;5.35;;;2.90;;
14060;SDS011;7105;43.616;1.434;2023-09-08T14:13:46;3.55;;;3.25;;
14060;SDS011;7105;43.616;1.434;2023-09-08T14:16:11;8.75;;;3.33;;
14060;SDS011;7105;43.616;1.434;2023-09-08T14:18:38;4.72;;;3.00;;
14060;SDS011;7105;43.616;1.434;2023-09-08T14:21:04;4.57;;;3.10;;
14060;SDS011;7105;43.616;1.434;2023-09-08T14:23:30;4.88;;;3.20;;
14060;SDS011;7105;43.616;1.434;2023-09-08T14:25:56;5.55;;;3.22;;
14060;SDS011;7105;43.616;1.434;2023-09-08T14:28:22;3.55;;;3.17;;
14060;SDS011;7105;43.616;1.434;2023-09-08T14:30:49;3.30;;;3.00;;
14060;SDS011;7105;43.616;1.434;2023-09-08T14:33:16;5.78;;;3.30;;
14060;SDS011;7105;43.616;1.434;2023-09-08T14:35:42;7.63;;;3.42;;
14060;SDS011;7105;43.616;1.434;2023-09-08T14:38:16;4.70;;;2.90;;
14060;SDS011;7105;43.616;1.434;2023-09-08T14:40:45;4.00;;;2.90;;
14060;SDS011;7105;43.616;1.434;2023-09-08T14:43:23;3.47;;;2.90;;
14060;SDS011;7105;43.616;1.434;2023-09-08T14:45:49;5.47;;;3.03;;
14060;SDS011;7105;43.616;1.434;2023-09-08T14:48:16;5.55;;;3.20;;
14060;SDS011;7105;43.616;1.434;2023-09-08T14:50:42;2.92;;;2.72;;
14060;SDS011;7105;43.616;1.434;2023-09-08T14:53:07;7.45;;;3.42;;
14060;SDS011;7105;43.616;1.434;2023-09-08T14:55:33;4.10;;;3.10;;
14060;SDS011;7105;43.616;1.434;2023-09-08T14:58:00;6.30;;;3.20;;
14060;SDS011;7105;43.616;1.434;2023-09-08T15:00:25;5.15;;;2.95;;
14060;SDS011;7105;43.616;1.434;2023-09-08T15:02:51;3.30;;;3.00;;
14060;SDS011;7105;43.616;1.434;2023-09-08T15:05:17;5.10;;;2.80;;
14060;SDS011;7105;43.616;1.434;2023-09-08T15:07:42;5.38;;;3.10;;
14060;SDS011;7105;43.616;1.434;2023-09-08T15:10:08;4.53;;;3.33;;
14060;SDS011;7105;43.616;1.434;2023-09-08T15:12:34;3.78;;;2.92;;